Newtonhill, United Kingdom
Current Conditions -  °F | °C
As of 1:20 AM on Sunday 26 Oct 2014 (Local Time) from EGPD Reporting Station
Clear Clear  
Wind Chill: 10°   Ceiling: Unl
Heat Index: 10°   Visibility: 6mi
Dew Point:   Wind: 21mph
Humidity: 76%   Direction: 200°SSW
Pressure: 29.53"   Gusts: NA
Location:  57.03°N, 2.15°W
Report Text: EGPD 260020Z AUTO 20018KT 9999 NCD 10/06 Q1000
Loading
Personal Weather Stations






























Interactive Weather Map
Tropical Storm Tracking
New forecast layout! Learn more

10-Day Weather Forecast

Advertisements
Track Severe Weather on mobile